createdAt,value
2018-07-14T00:02:28.613Z,19.60
2018-07-14T00:04:57.137Z,19.70
2018-07-14T00:07:25.667Z,19.70
2018-07-14T00:09:54.232Z,19.70
2018-07-14T00:12:22.715Z,19.70
2018-07-14T00:14:51.193Z,19.70
2018-07-14T00:17:19.717Z,19.60
2018-07-14T00:47:32.297Z,19.30
2018-07-14T00:50:00.789Z,19.30
2018-07-14T00:52:29.293Z,19.10
2018-07-14T00:54:57.772Z,19.00
2018-07-14T00:57:26.257Z,19.00
2018-07-14T00:59:54.729Z,19.00
2018-07-14T01:02:23.181Z,19.00
2018-07-14T01:04:51.680Z,18.90
2018-07-14T01:07:20.264Z,18.90
2018-07-14T01:09:48.744Z,18.90
2018-07-14T01:12:17.217Z,18.90
2018-07-14T01:14:45.668Z,18.80
2018-07-14T01:17:14.137Z,18.70
2018-07-14T01:19:42.968Z,18.80
2018-07-14T01:22:11.445Z,18.80
2018-07-14T01:24:39.897Z,18.70
2018-07-14T01:27:08.370Z,18.70
2018-07-14T01:29:36.848Z,18.70
2018-07-14T01:32:05.329Z,18.60
2018-07-14T01:34:33.815Z,18.60
2018-07-14T01:37:02.249Z,18.50
2018-07-14T01:39:30.685Z,18.30
2018-07-14T01:41:59.168Z,18.30
2018-07-14T01:44:27.594Z,18.30
2018-07-14T01:46:56.106Z,18.20
2018-07-14T01:51:52.730Z,18.20
2018-07-14T01:54:21.193Z,18.30
2018-07-14T01:56:49.906Z,18.20
2018-07-14T01:59:18.358Z,18.10
2018-07-14T02:01:46.841Z,18.20
2018-07-14T02:04:15.289Z,18.30
2018-07-14T02:06:43.777Z,18.50
2018-07-14T02:09:12.246Z,18.50
2018-07-14T02:11:40.704Z,18.40
2018-07-14T02:16:37.334Z,18.10
2018-07-14T02:19:05.916Z,18.00
2018-07-14T02:21:34.373Z,17.90
2018-07-14T02:24:02.837Z,17.90
2018-07-14T02:26:31.294Z,17.80
2018-07-14T02:28:59.805Z,17.70
2018-07-14T02:31:28.250Z,17.50
2018-07-14T02:33:56.745Z,17.50
2018-07-14T02:36:25.237Z,17.60
2018-07-14T02:38:53.758Z,17.60
2018-07-14T02:41:22.271Z,17.70
2018-07-14T02:43:50.753Z,17.80
2018-07-14T02:46:19.337Z,17.80
2018-07-14T02:48:47.837Z,17.70
2018-07-14T02:51:16.349Z,17.70
2018-07-14T02:53:44.828Z,17.60
2018-07-14T02:56:13.283Z,17.60
2018-07-14T02:58:41.769Z,17.50
2018-07-14T03:01:10.214Z,17.40
2018-07-14T03:03:38.752Z,17.40
2018-07-14T03:06:07.256Z,17.50
2018-07-14T03:08:36.158Z,17.50
2018-07-14T03:11:04.585Z,17.50
2018-07-14T03:13:33.093Z,17.40
2018-07-14T03:16:01.601Z,17.40
2018-07-14T03:18:30.054Z,17.30
2018-07-14T03:20:58.527Z,17.30
2018-07-14T03:23:26.997Z,17.30
2018-07-14T03:25:55.504Z,17.20
2018-07-14T03:28:23.974Z,17.20
2018-07-14T03:30:52.460Z,17.30
2018-07-14T03:33:21.036Z,17.30
2018-07-14T03:35:49.426Z,17.20
2018-07-14T03:38:17.894Z,17.20
2018-07-14T03:40:46.361Z,17.20
2018-07-14T03:43:14.854Z,17.20
2018-07-14T03:45:43.296Z,17.20
2018-07-14T03:48:11.745Z,17.20
2018-07-14T03:50:40.225Z,17.30
2018-07-14T03:53:08.677Z,17.30
2018-07-14T03:55:37.197Z,17.20
2018-07-14T03:58:05.657Z,17.20
2018-07-14T04:00:34.101Z,17.20
2018-07-14T04:03:02.565Z,17.10
2018-07-14T04:05:31.044Z,17.10
2018-07-14T04:07:59.754Z,17.00
2018-07-14T04:10:28.206Z,17.00
2018-07-14T04:12:56.678Z,17.10
2018-07-14T04:15:25.132Z,17.10
2018-07-14T04:18:00.616Z,17.10
2018-07-14T04:22:57.235Z,17.20
2018-07-14T04:25:25.737Z,17.30
2018-07-14T04:27:54.195Z,17.40
2018-07-14T04:30:22.648Z,17.50
2018-07-14T04:32:51.101Z,17.50
2018-07-14T04:35:19.566Z,17.50
2018-07-14T04:37:48.030Z,17.50
2018-07-14T04:40:16.501Z,17.50
2018-07-14T04:42:45.008Z,17.50
2018-07-14T04:47:48.069Z,17.70
2018-07-14T04:52:44.681Z,18.00
2018-07-14T04:55:13.161Z,17.90
2018-07-14T04:57:41.617Z,18.10
2018-07-14T05:00:10.127Z,18.20
2018-07-14T05:02:38.609Z,18.30
2018-07-14T05:05:07.103Z,18.40
2018-07-14T05:10:03.791Z,18.50
2018-07-14T05:12:32.252Z,18.90
2018-07-14T05:15:00.738Z,18.90
2018-07-14T05:17:29.213Z,19.10
2018-07-14T05:19:57.666Z,19.20
2018-07-14T05:22:26.135Z,19.20
2018-07-14T05:24:54.629Z,19.40
2018-07-14T05:27:23.127Z,19.50
2018-07-14T05:29:51.576Z,19.60
2018-07-14T05:32:20.078Z,19.70
2018-07-14T05:34:48.545Z,19.80
2018-07-14T05:37:17.033Z,20.00
2018-07-14T05:39:45.498Z,20.40
2018-07-14T05:42:13.962Z,21.00
2018-07-14T05:44:42.445Z,21.50
2018-07-14T05:47:10.911Z,22.10
2018-07-14T05:49:39.390Z,22.60
2018-07-14T05:59:32.845Z,22.90
2018-07-14T06:14:22.281Z,24.30
2018-07-14T06:16:50.704Z,25.50
2018-07-14T06:21:47.361Z,25.90
2018-07-14T06:24:15.911Z,25.90
2018-07-14T06:26:44.398Z,26.30
2018-07-14T06:29:12.906Z,26.90
2018-07-14T06:31:41.403Z,26.90
2018-07-14T06:34:09.890Z,27.60
2018-07-14T06:41:34.655Z,28.60
2018-07-14T06:46:31.324Z,28.80
2018-07-14T06:48:59.810Z,28.90
2018-07-14T06:51:28.309Z,29.20
2018-07-14T06:56:25.174Z,29.20
2018-07-14T07:03:49.934Z,30.10
2018-07-14T07:06:18.475Z,30.20
2018-07-14T07:11:15.148Z,31.50
2018-07-14T07:16:11.826Z,30.90
2018-07-14T07:21:08.571Z,31.20
2018-07-14T07:26:05.267Z,32.20
2018-07-14T07:28:33.762Z,32.10
2018-07-14T07:31:02.319Z,31.60
2018-07-14T07:33:30.783Z,31.80
2018-07-14T07:38:27.470Z,33.00
2018-07-14T07:40:55.976Z,32.60
2018-07-14T07:43:24.470Z,32.50
2018-07-14T07:48:21.056Z,32.50
2018-07-14T07:50:49.527Z,33.10
2018-07-14T07:53:18.077Z,32.60
2018-07-14T08:00:42.880Z,32.20
2018-07-14T08:03:11.351Z,32.80
2018-07-14T08:05:39.832Z,33.00
2018-07-14T08:08:08.326Z,33.40
2018-07-14T08:10:36.832Z,33.80
2018-07-14T08:13:05.397Z,33.80
2018-07-14T08:15:33.873Z,32.70
2018-07-14T08:20:30.530Z,32.20
2018-07-14T08:22:58.991Z,32.20
2018-07-14T08:30:24.053Z,32.60
2018-07-14T08:35:20.726Z,33.30
2018-07-14T10:27:29.308Z,35.80
2018-07-14T10:34:54.155Z,35.30
2018-07-14T10:37:22.724Z,36.10
2018-07-14T10:42:19.423Z,36.70
2018-07-14T10:49:44.387Z,37.20
2018-07-14T10:54:41.351Z,35.40
2018-07-14T10:59:37.989Z,35.60
2018-07-14T11:02:06.548Z,35.40
2018-07-14T11:04:35.091Z,35.00
2018-07-14T11:07:03.629Z,34.80
2018-07-14T11:09:32.102Z,35.30
2018-07-14T11:12:00.644Z,35.90
2018-07-14T11:14:29.098Z,36.50
2018-07-14T11:19:25.795Z,36.60
2018-07-14T11:21:54.297Z,36.10
2018-07-14T11:26:50.926Z,35.80
2018-07-14T11:29:19.442Z,35.90
2018-07-14T11:34:16.209Z,35.60
2018-07-14T11:39:13.137Z,34.90
2018-07-14T11:41:41.629Z,33.70
2018-07-14T11:46:38.424Z,34.90
2018-07-14T11:49:06.957Z,34.80
2018-07-14T11:51:35.472Z,34.50
2018-07-14T11:54:04.019Z,35.20
2018-07-14T11:56:32.595Z,35.70
2018-07-14T11:59:01.111Z,36.20
2018-07-14T12:01:29.647Z,36.20
2018-07-14T12:03:58.124Z,36.10
2018-07-14T12:06:26.650Z,35.50
2018-07-14T12:09:01.573Z,36.00
2018-07-14T12:11:30.154Z,35.60
2018-07-14T12:16:26.851Z,33.40
2018-07-14T12:21:23.545Z,33.10
2018-07-14T12:23:52.093Z,34.40
2018-07-14T12:26:20.601Z,34.90
2018-07-14T12:28:49.341Z,35.10
2018-07-14T12:31:17.858Z,34.90
2018-07-14T12:33:46.354Z,35.20
2018-07-14T12:38:43.210Z,35.60
2018-07-14T12:41:11.745Z,35.60
2018-07-14T12:43:40.278Z,35.80
2018-07-14T12:48:37.043Z,35.30
2018-07-14T12:51:05.498Z,35.10
2018-07-14T12:58:30.293Z,33.60
2018-07-14T13:00:58.755Z,33.90
2018-07-14T13:03:27.281Z,34.20
2018-07-14T13:05:55.830Z,34.20
2018-07-14T13:08:24.357Z,34.30
2018-07-14T13:10:52.808Z,33.90
2018-07-14T13:13:21.324Z,33.90
2018-07-14T13:15:49.805Z,33.60
2018-07-14T13:18:18.329Z,33.20
2018-07-14T13:20:46.789Z,32.90
2018-07-14T13:23:15.294Z,32.90
2018-07-14T13:25:43.789Z,32.90
2018-07-14T13:30:40.798Z,32.70
2018-07-14T13:33:09.282Z,33.00
2018-07-14T13:38:05.957Z,33.30
2018-07-14T13:43:02.688Z,31.90
2018-07-14T13:45:31.229Z,31.80
2018-07-14T13:47:59.818Z,32.40
2018-07-14T13:55:24.677Z,32.00
2018-07-14T13:57:53.201Z,32.50
2018-07-14T14:00:21.677Z,33.30
2018-07-14T14:02:50.134Z,33.40
2018-07-14T14:05:18.651Z,32.90
2018-07-14T14:07:47.072Z,33.30
2018-07-14T14:10:15.524Z,33.30
2018-07-14T14:12:43.981Z,32.40
2018-07-14T14:17:41.201Z,32.00
2018-07-14T14:22:37.839Z,31.40
2018-07-14T14:25:07.565Z,31.70
2018-07-14T14:27:36.167Z,31.90
2018-07-14T14:32:33.191Z,30.90
2018-07-14T14:35:01.672Z,31.30
2018-07-14T14:37:30.195Z,31.60
2018-07-14T14:39:58.765Z,31.60
2018-07-14T14:42:27.224Z,31.90
2018-07-14T14:44:55.784Z,31.60
2018-07-14T14:49:52.485Z,31.80
2018-07-14T14:52:20.930Z,31.70
2018-07-14T14:54:49.397Z,31.80
2018-07-14T14:59:46.035Z,31.50
2018-07-14T15:02:14.500Z,30.70
2018-07-14T15:04:43.092Z,30.70
2018-07-14T15:07:11.530Z,31.00
2018-07-14T15:12:10.406Z,31.00
2018-07-14T15:14:38.989Z,30.90
2018-07-14T15:19:35.623Z,30.90
2018-07-14T15:24:32.275Z,31.10
2018-07-14T15:27:00.792Z,30.80
2018-07-14T15:29:29.229Z,30.90
2018-07-14T15:34:25.932Z,30.80
2018-07-14T15:36:54.395Z,30.80
2018-07-14T15:39:22.860Z,30.80
2018-07-14T15:41:51.345Z,30.70
2018-07-14T15:44:19.831Z,30.90
2018-07-14T15:46:48.316Z,31.00
2018-07-14T15:51:44.943Z,30.10
2018-07-14T15:54:13.396Z,29.80
2018-07-14T15:56:41.907Z,29.50
2018-07-14T15:59:10.400Z,29.40
2018-07-14T16:01:38.885Z,29.60
2018-07-14T16:04:07.362Z,29.60
2018-07-14T16:06:35.848Z,29.60
2018-07-14T16:09:04.976Z,29.70
2018-07-14T16:14:01.638Z,29.50
2018-07-14T16:16:30.139Z,29.40
2018-07-14T16:18:58.663Z,29.30
2018-07-14T16:21:27.085Z,29.20
2018-07-14T16:23:55.654Z,29.00
2018-07-14T16:28:52.286Z,28.90
2018-07-14T16:31:20.762Z,28.90
2018-07-14T16:33:49.277Z,28.70
2018-07-14T16:36:17.736Z,28.50
2018-07-14T16:38:46.232Z,28.60
2018-07-14T16:41:14.759Z,28.60
2018-07-14T16:43:43.544Z,28.60
2018-07-14T16:46:12.051Z,28.50
2018-07-14T16:48:40.548Z,28.50
2018-07-14T16:51:09.027Z,28.40
2018-07-14T16:53:37.516Z,28.40
2018-07-14T16:56:06.236Z,28.30
2018-07-14T16:58:34.775Z,28.20
2018-07-14T17:01:03.309Z,28.20
2018-07-14T17:03:31.821Z,28.10
2018-07-14T17:06:00.366Z,28.00
2018-07-14T17:08:28.826Z,28.00
2018-07-14T17:10:57.285Z,27.90
2018-07-14T17:13:25.772Z,27.90
2018-07-14T17:15:54.235Z,27.80
2018-07-14T17:18:22.719Z,27.70
2018-07-14T17:20:51.383Z,27.60
2018-07-14T17:23:19.876Z,27.40
2018-07-14T17:28:16.564Z,27.40
2018-07-14T17:30:45.075Z,27.40
2018-07-14T17:33:13.581Z,27.40
2018-07-14T17:35:42.133Z,27.30
2018-07-14T17:38:10.578Z,27.30
2018-07-14T17:40:39.091Z,27.20
2018-07-14T17:43:07.593Z,27.20
2018-07-14T17:45:37.027Z,27.10
2018-07-14T17:48:05.930Z,27.00
2018-07-14T17:50:34.393Z,27.00
2018-07-14T17:53:02.893Z,27.00
2018-07-14T17:55:31.345Z,26.90
2018-07-14T18:00:27.968Z,26.90
2018-07-14T18:02:56.507Z,26.90
2018-07-14T18:05:25.007Z,26.80
2018-07-14T18:07:53.475Z,26.70
2018-07-14T18:10:22.001Z,26.70
2018-07-14T18:12:50.548Z,26.60
2018-07-14T18:15:19.018Z,26.50
2018-07-14T18:17:47.546Z,26.50
2018-07-14T18:20:16.034Z,26.40
2018-07-14T18:25:12.721Z,26.30
2018-07-14T18:27:41.205Z,26.30
2018-07-14T18:30:09.675Z,26.30
2018-07-14T18:32:38.134Z,26.30
2018-07-14T18:35:06.620Z,26.20
2018-07-14T18:37:35.087Z,26.20
2018-07-14T18:40:03.603Z,26.10
2018-07-14T18:45:00.197Z,26.00
2018-07-14T18:47:28.736Z,25.90
2018-07-14T18:49:57.216Z,25.80
2018-07-14T18:52:25.835Z,25.70
2018-07-14T18:54:54.187Z,25.70
2018-07-14T18:57:22.670Z,25.70
2018-07-14T18:59:51.127Z,25.70
2018-07-14T19:04:47.710Z,25.60
2018-07-14T19:07:16.281Z,25.40
2018-07-14T19:09:44.744Z,25.40
2018-07-14T19:12:13.264Z,25.30
2018-07-14T19:14:41.795Z,25.30
2018-07-14T19:17:10.323Z,25.20
2018-07-14T19:19:38.813Z,25.20
2018-07-14T19:24:35.905Z,25.00
2018-07-14T19:27:04.724Z,25.00
2018-07-14T19:29:33.213Z,24.90
2018-07-14T19:32:01.638Z,24.90
2018-07-14T19:34:30.108Z,24.80
2018-07-14T19:36:58.673Z,24.70
2018-07-14T19:39:27.422Z,24.70
2018-07-14T19:41:56.117Z,24.60
2018-07-14T19:44:24.666Z,24.60
2018-07-14T19:46:53.425Z,24.50
2018-07-14T19:49:21.920Z,24.40
2018-07-14T19:51:50.428Z,24.30
2018-07-14T19:56:47.440Z,24.20
2018-07-14T19:59:16.208Z,24.10
2018-07-14T20:01:44.740Z,24.10
2018-07-14T20:04:13.227Z,24.00
2018-07-14T20:06:41.797Z,24.00
2018-07-14T20:09:10.284Z,24.00
2018-07-14T20:11:38.802Z,23.90
2018-07-14T20:14:07.452Z,23.80
2018-07-14T20:16:35.923Z,23.80
2018-07-14T20:19:04.427Z,23.70
2018-07-14T20:21:32.868Z,23.70
2018-07-14T20:24:01.466Z,23.70
2018-07-14T20:28:58.205Z,23.70
2018-07-14T20:31:26.799Z,23.70
2018-07-14T20:33:55.326Z,23.60
2018-07-14T20:36:23.806Z,23.70
2018-07-14T20:38:52.290Z,23.60
2018-07-14T20:41:20.757Z,23.50
2018-07-14T20:43:49.396Z,23.30
2018-07-14T20:46:17.827Z,23.20
2018-07-14T20:48:46.299Z,23.20
2018-07-14T20:51:14.774Z,23.20
2018-07-14T20:53:43.313Z,23.10
2018-07-14T20:56:11.862Z,23.00
2018-07-14T20:58:40.336Z,23.00
2018-07-14T21:01:08.845Z,23.00
2018-07-14T21:06:05.643Z,23.10
2018-07-14T21:08:34.181Z,22.90
2018-07-14T21:11:02.690Z,22.90
2018-07-14T21:13:31.219Z,22.90
2018-07-14T21:15:59.973Z,22.90
2018-07-14T21:18:28.481Z,22.80
2018-07-14T21:20:57.012Z,22.80
2018-07-14T21:23:25.506Z,22.90
2018-07-14T21:28:22.578Z,22.90
2018-07-14T21:30:51.101Z,22.90
2018-07-14T21:35:47.824Z,22.80
2018-07-14T21:38:16.311Z,22.70
2018-07-14T21:40:44.810Z,22.60
2018-07-14T21:48:09.765Z,22.30
2018-07-14T21:50:38.369Z,22.30
2018-07-14T21:53:06.850Z,22.30
2018-07-14T21:55:35.350Z,22.30
2018-07-14T21:58:03.847Z,22.20
2018-07-14T22:00:37.869Z,22.10
2018-07-14T22:03:06.822Z,22.00
2018-07-14T22:05:35.358Z,22.10
2018-07-14T22:08:03.860Z,22.10
2018-07-14T22:10:32.426Z,22.10
2018-07-14T22:13:00.913Z,22.00
2018-07-14T22:15:29.553Z,22.00
2018-07-14T22:17:58.029Z,21.90
2018-07-14T22:22:54.988Z,21.90
2018-07-14T22:25:23.526Z,21.80
2018-07-14T22:27:52.039Z,21.60
2018-07-14T22:30:20.548Z,21.70
2018-07-14T22:32:49.073Z,21.70
2018-07-14T22:35:17.620Z,21.80
2018-07-14T22:37:46.102Z,21.60
2018-07-14T22:40:14.565Z,21.40
2018-07-14T22:42:43.053Z,21.40
2018-07-14T22:45:11.557Z,21.40
2018-07-14T22:47:40.045Z,21.30
2018-07-14T22:50:08.555Z,21.40
2018-07-14T22:52:37.073Z,21.40
2018-07-14T22:55:05.940Z,21.30
2018-07-14T22:57:34.461Z,21.30
2018-07-14T23:02:31.089Z,21.30
2018-07-14T23:04:59.609Z,21.20
2018-07-14T23:07:28.077Z,21.20
2018-07-14T23:09:56.558Z,21.20
2018-07-14T23:12:25.082Z,21.20
2018-07-14T23:14:53.514Z,21.20
2018-07-14T23:17:22.024Z,21.10
2018-07-14T23:24:46.983Z,20.80
2018-07-14T23:27:15.485Z,20.70
2018-07-14T23:29:43.977Z,20.80
2018-07-14T23:32:12.512Z,20.80
2018-07-14T23:34:40.991Z,20.80
2018-07-14T23:39:37.738Z,20.70
2018-07-14T23:42:06.308Z,20.60
2018-07-14T23:44:34.791Z,20.70
2018-07-14T23:47:03.328Z,20.60
2018-07-14T23:49:31.821Z,20.50
2018-07-14T23:52:00.346Z,20.40
2018-07-14T23:54:28.872Z,20.20
2018-07-14T23:56:57.397Z,20.00
2018-07-14T23:59:25.895Z,19.90
